Aérodrome :
LOGIN :

S'inscrire | Disclaimer

   EN    FR    IT 

 










Légende :    VFR   VFR Marginal   IFR   IFR Intensif   IFR Très Intensif
Visi : 
Plafond : 
>= 8 km
>= 3000ft
5 à 8 km
1000 à 3000 ft
1500m à 5 km
500 à 1000 ft
800 à 1500m
200 à 500 ft
< 800m
< 200 ft
Symboles :   Orages  Brouillard  Fortes neiges  Fortes précipitations  Vent > 20 kt
SIGMETs :   Divers  Orages  Givrage  Turbulence  Onde Orograph.  Cendres Volcan.






- Altitude de l'aérodrome : 1674 ft
- Code IATA : BRN


LSZB - Bern Belp

DERNIER METAR :
  • 151250Z 29006KT 9999 SCT130 28/17 Q1012

METARs EXPIRÉS :
  • 151220Z 29004KT 250V330 9999 FEW048 SCT140 28/17 Q1012
  • 151150Z 29003KT 210V340 CAVOK 27/16 Q1013
  • 151120Z 25003KT CAVOK 26/16 Q1013
  • 151050Z 25003KT 170V310 9999 FEW140 24/16 Q1014
  • 151020Z VRB02KT CAVOK 24/16 Q1014
  • 150950Z VRB02KT 9999 FEW085 23/17 Q1014
  • 150920Z VRB01KT 9999 FEW085 SCT130 BKN140 21/16 Q1014
  • 150850Z VRB02KT CAVOK 21/16 Q1014
  • 150820Z 10004KT CAVOK 20/16 Q1014

TAF TAF LSZB
Valide du 15 à 12h jusqu'au 15 à 21h UTC


151125Z 1512/1521 VRB02KT CAVOK
TEMPO 1512/1515 9999 FEW120
BECMG 1514/1517 9999 BKN080
TEMPO 1517/1520 28012G25KT 4000 TSRA FEW050CB
ATIS : +41 22 417 40 76



MET'MAP, la Météo Aéronautique d'un coup d'oeil ! - Copyright ORBIFLY Décembre 2007 - Disclaimer

ORBIFLY MET'MAP TEAM :

Programmation & Développement : Alexandra Zaïnal
Sur une idée originale de : Baudouin d'Aumeries
Soutien technique & logistique : Manuel Goepfert
Assistance : Marc-Olivier Méhu




SOURCES & CREDITS :

   NOAA